sensor_id;sensor_type;location;lat;lon;timestamp;P1;durP1;ratioP1;P2;durP2;ratioP2
25649;SDS011;13505;45.196;5.696;2023-02-05T05:04:47;9.43;;;6.22;;
25649;SDS011;13505;45.196;5.696;2023-02-05T05:09:37;9.90;;;6.15;;
25649;SDS011;13505;45.196;5.696;2023-02-05T05:14:28;11.20;;;6.13;;
25649;SDS011;13505;45.196;5.696;2023-02-05T05:19:18;9.73;;;6.28;;
25649;SDS011;13505;45.196;5.696;2023-02-05T05:24:09;10.02;;;6.55;;
25649;SDS011;13505;45.196;5.696;2023-02-05T05:28:59;9.77;;;6.78;;
25649;SDS011;13505;45.196;5.696;2023-02-05T05:33:50;11.23;;;6.90;;
25649;SDS011;13505;45.196;5.696;2023-02-05T05:38:41;10.15;;;6.78;;
25649;SDS011;13505;45.196;5.696;2023-02-05T05:43:31;9.55;;;6.78;;
25649;SDS011;13505;45.196;5.696;2023-02-05T05:48:37;10.82;;;6.80;;
25649;SDS011;13505;45.196;5.696;2023-02-05T05:53:27;12.45;;;7.30;;
25649;SDS011;13505;45.196;5.696;2023-02-05T05:58:18;11.68;;;7.20;;
25649;SDS011;13505;45.196;5.696;2023-02-05T06:03:08;11.50;;;7.18;;
25649;SDS011;13505;45.196;5.696;2023-02-05T06:07:59;10.63;;;6.85;;
25649;SDS011;13505;45.196;5.696;2023-02-05T06:12:50;10.18;;;6.70;;
25649;SDS011;13505;45.196;5.696;2023-02-05T06:17:42;10.52;;;6.88;;
25649;SDS011;13505;45.196;5.696;2023-02-05T06:22:32;11.95;;;7.03;;
25649;SDS011;13505;45.196;5.696;2023-02-05T06:27:22;11.80;;;7.65;;
25649;SDS011;13505;45.196;5.696;2023-02-05T06:32:13;11.02;;;7.05;;
25649;SDS011;13505;45.196;5.696;2023-02-05T06:37:03;12.07;;;7.60;;
25649;SDS011;13505;45.196;5.696;2023-02-05T06:41:53;12.07;;;7.32;;
25649;SDS011;13505;45.196;5.696;2023-02-05T06:46:44;12.88;;;6.43;;
25649;SDS011;13505;45.196;5.696;2023-02-05T06:51:34;11.77;;;7.70;;
25649;SDS011;13505;45.196;5.696;2023-02-05T06:56:24;14.90;;;7.55;;
25649;SDS011;13505;45.196;5.696;2023-02-05T07:01:15;12.07;;;7.97;;
25649;SDS011;13505;45.196;5.696;2023-02-05T07:06:06;12.48;;;7.68;;
25649;SDS011;13505;45.196;5.696;2023-02-05T07:10:56;14.80;;;9.18;;
25649;SDS011;13505;45.196;5.696;2023-02-05T07:15:47;15.02;;;9.18;;
25649;SDS011;13505;45.196;5.696;2023-02-05T07:20:38;13.32;;;7.90;;
25649;SDS011;13505;45.196;5.696;2023-02-05T07:25:28;11.23;;;7.18;;
25649;SDS011;13505;45.196;5.696;2023-02-05T07:30:25;12.88;;;6.47;;
25649;SDS011;13505;45.196;5.696;2023-02-05T07:35:16;9.30;;;5.70;;
25649;SDS011;13505;45.196;5.696;2023-02-05T07:40:06;9.50;;;5.45;;
25649;SDS011;13505;45.196;5.696;2023-02-05T07:44:57;8.80;;;5.07;;
25649;SDS011;13505;45.196;5.696;2023-02-05T07:49:48;9.75;;;5.57;;
25649;SDS011;13505;45.196;5.696;2023-02-05T07:54:38;12.20;;;6.03;;
25649;SDS011;13505;45.196;5.696;2023-02-05T07:59:29;11.00;;;6.40;;
25649;SDS011;13505;45.196;5.696;2023-02-05T08:04:19;14.00;;;5.63;;
25649;SDS011;13505;45.196;5.696;2023-02-05T08:09:10;9.90;;;6.50;;
25649;SDS011;13505;45.196;5.696;2023-02-05T08:14:00;13.40;;;7.53;;
25649;SDS011;13505;45.196;5.696;2023-02-05T08:18:51;15.23;;;6.80;;
25649;SDS011;13505;45.196;5.696;2023-02-05T08:23:41;12.93;;;6.75;;
25649;SDS011;13505;45.196;5.696;2023-02-05T08:28:32;11.57;;;6.55;;
25649;SDS011;13505;45.196;5.696;2023-02-05T08:33:22;12.27;;;6.57;;
25649;SDS011;13505;45.196;5.696;2023-02-05T08:38:16;13.18;;;8.27;;
25649;SDS011;13505;45.196;5.696;2023-02-05T08:43:07;17.63;;;9.70;;
25649;SDS011;13505;45.196;5.696;2023-02-05T08:47:57;14.20;;;9.02;;
25649;SDS011;13505;45.196;5.696;2023-02-05T08:52:47;16.17;;;8.98;;
25649;SDS011;13505;45.196;5.696;2023-02-05T08:57:38;15.13;;;7.78;;
25649;SDS011;13505;45.196;5.696;2023-02-05T09:02:29;13.45;;;7.22;;
25649;SDS011;13505;45.196;5.696;2023-02-05T09:07:20;10.07;;;6.38;;
25649;SDS011;13505;45.196;5.696;2023-02-05T09:12:10;12.25;;;6.28;;
25649;SDS011;13505;45.196;5.696;2023-02-05T09:17:01;9.43;;;6.28;;
25649;SDS011;13505;45.196;5.696;2023-02-05T09:21:53;9.80;;;5.85;;
25649;SDS011;13505;45.196;5.696;2023-02-05T09:26:43;10.50;;;6.22;;
25649;SDS011;13505;45.196;5.696;2023-02-05T09:31:34;13.45;;;6.20;;
25649;SDS011;13505;45.196;5.696;2023-02-05T09:36:24;14.23;;;6.50;;
25649;SDS011;13505;45.196;5.696;2023-02-05T09:41:23;9.45;;;5.80;;
25649;SDS011;13505;45.196;5.696;2023-02-05T09:51:19;11.93;;;7.03;;
25649;SDS011;13505;45.196;5.696;2023-02-05T09:56:14;10.15;;;6.18;;
25649;SDS011;13505;45.196;5.696;2023-02-05T10:01:08;8.73;;;5.47;;
25649;SDS011;13505;45.196;5.696;2023-02-05T10:11:23;9.43;;;5.25;;
25649;SDS011;13505;45.196;5.696;2023-02-05T10:27:19;10.80;;;5.30;;
25649;SDS011;13505;45.196;5.696;2023-02-05T10:32:20;33.90;;;10.13;;
25649;SDS011;13505;45.196;5.696;2023-02-05T10:37:16;34.63;;;10.27;;
25649;SDS011;13505;45.196;5.696;2023-02-05T10:42:18;16.85;;;7.25;;
25649;SDS011;13505;45.196;5.696;2023-02-05T10:47:23;10.43;;;4.97;;
25649;SDS011;13505;45.196;5.696;2023-02-05T10:52:29;8.77;;;4.80;;
25649;SDS011;13505;45.196;5.696;2023-02-05T10:57:21;7.78;;;4.28;;
25649;SDS011;13505;45.196;5.696;2023-02-05T11:02:12;7.05;;;4.63;;
25649;SDS011;13505;45.196;5.696;2023-02-05T11:07:03;6.45;;;3.10;;
25649;SDS011;13505;45.196;5.696;2023-02-05T11:12:14;6.90;;;3.10;;
25649;SDS011;13505;45.196;5.696;2023-02-05T11:17:20;7.70;;;3.30;;
25649;SDS011;13505;45.196;5.696;2023-02-05T11:22:22;6.95;;;3.30;;
25649;SDS011;13505;45.196;5.696;2023-02-05T11:27:32;6.22;;;3.25;;
25649;SDS011;13505;45.196;5.696;2023-02-05T11:32:31;7.15;;;3.10;;
25649;SDS011;13505;45.196;5.696;2023-02-05T11:37:24;5.40;;;3.50;;
25649;SDS011;13505;45.196;5.696;2023-02-05T11:42:21;10.15;;;2.70;;
25649;SDS011;13505;45.196;5.696;2023-02-05T11:47:47;6.13;;;2.78;;
25649;SDS011;13505;45.196;5.696;2023-02-05T11:52:34;5.75;;;2.47;;
25649;SDS011;13505;45.196;5.696;2023-02-05T11:57:31;4.75;;;2.40;;
25649;SDS011;13505;45.196;5.696;2023-02-05T12:02:30;8.18;;;2.80;;
25649;SDS011;13505;45.196;5.696;2023-02-05T12:07:22;6.97;;;2.95;;
25649;SDS011;13505;45.196;5.696;2023-02-05T12:12:22;7.20;;;2.60;;
25649;SDS011;13505;45.196;5.696;2023-02-05T12:17:32;6.93;;;2.25;;
25649;SDS011;13505;45.196;5.696;2023-02-05T12:27:25;6.28;;;1.83;;
25649;SDS011;13505;45.196;5.696;2023-02-05T13:04:42;7.70;;;2.58;;
25649;SDS011;13505;45.196;5.696;2023-02-05T13:09:47;4.03;;;2.75;;
25649;SDS011;13505;45.196;5.696;2023-02-05T13:19:46;10.02;;;2.92;;
25649;SDS011;13505;45.196;5.696;2023-02-05T13:24:43;8.55;;;3.45;;
25649;SDS011;13505;45.196;5.696;2023-02-05T13:29:57;11.70;;;3.25;;
25649;SDS011;13505;45.196;5.696;2023-02-05T13:34:48;6.05;;;2.67;;
25649;SDS011;13505;45.196;5.696;2023-02-05T13:39:53;4.53;;;2.63;;
25649;SDS011;13505;45.196;5.696;2023-02-05T13:59:55;8.75;;;3.65;;
25649;SDS011;13505;45.196;5.696;2023-02-05T14:04:46;9.85;;;3.28;;
25649;SDS011;13505;45.196;5.696;2023-02-05T14:09:43;6.53;;;3.20;;
25649;SDS011;13505;45.196;5.696;2023-02-05T14:14:45;6.68;;;3.40;;
25649;SDS011;13505;45.196;5.696;2023-02-05T14:20:23;6.18;;;3.10;;
25649;SDS011;13505;45.196;5.696;2023-02-05T14:40:27;8.20;;;3.45;;
25649;SDS011;13505;45.196;5.696;2023-02-05T14:45:21;8.82;;;3.90;;
25649;SDS011;13505;45.196;5.696;2023-02-05T14:50:21;6.07;;;3.70;;
25649;SDS011;13505;45.196;5.696;2023-02-05T14:55:18;9.02;;;3.55;;
25649;SDS011;13505;45.196;5.696;2023-02-05T15:00:21;8.88;;;3.10;;
25649;SDS011;13505;45.196;5.696;2023-02-05T15:05:19;6.75;;;3.33;;
25649;SDS011;13505;45.196;5.696;2023-02-05T15:10:20;6.82;;;3.35;;
25649;SDS011;13505;45.196;5.696;2023-02-05T15:15:25;6.13;;;2.88;;
25649;SDS011;13505;45.196;5.696;2023-02-05T15:20:22;7.13;;;3.33;;
25649;SDS011;13505;45.196;5.696;2023-02-05T15:30:32;7.50;;;3.35;;
25649;SDS011;13505;45.196;5.696;2023-02-05T15:35:56;8.60;;;3.70;;
25649;SDS011;13505;45.196;5.696;2023-02-05T15:40:49;5.75;;;3.92;;
25649;SDS011;13505;45.196;5.696;2023-02-05T15:45:41;8.48;;;3.65;;
25649;SDS011;13505;45.196;5.696;2023-02-05T15:56:05;11.48;;;3.80;;
25649;SDS011;13505;45.196;5.696;2023-02-05T16:01:01;10.43;;;4.07;;
25649;SDS011;13505;45.196;5.696;2023-02-05T16:05:53;8.98;;;3.80;;
25649;SDS011;13505;45.196;5.696;2023-02-05T16:10:50;8.95;;;3.80;;
25649;SDS011;13505;45.196;5.696;2023-02-05T16:15:52;7.45;;;3.70;;
25649;SDS011;13505;45.196;5.696;2023-02-05T16:20:55;8.05;;;3.53;;
25649;SDS011;13505;45.196;5.696;2023-02-05T16:25:56;9.45;;;3.92;;
25649;SDS011;13505;45.196;5.696;2023-02-05T16:30:52;7.05;;;3.30;;
25649;SDS011;13505;45.196;5.696;2023-02-05T16:35:46;4.13;;;2.75;;
25649;SDS011;13505;45.196;5.696;2023-02-05T16:40:38;4.85;;;2.95;;
25649;SDS011;13505;45.196;5.696;2023-02-05T16:45:32;4.60;;;3.03;;
25649;SDS011;13505;45.196;5.696;2023-02-05T16:50:36;6.78;;;2.92;;
25649;SDS011;13505;45.196;5.696;2023-02-05T16:55:38;6.07;;;3.10;;
25649;SDS011;13505;45.196;5.696;2023-02-05T17:00:30;5.20;;;2.42;;
25649;SDS011;13505;45.196;5.696;2023-02-05T17:05:27;8.60;;;3.50;;
25649;SDS011;13505;45.196;5.696;2023-02-05T17:10:21;7.55;;;3.13;;
25649;SDS011;13505;45.196;5.696;2023-02-05T17:25:04;8.70;;;3.60;;
25649;SDS011;13505;45.196;5.696;2023-02-05T17:29:55;6.72;;;2.97;;
25649;SDS011;13505;45.196;5.696;2023-02-05T17:34:47;3.08;;;2.63;;
25649;SDS011;13505;45.196;5.696;2023-02-05T17:39:38;7.65;;;3.05;;
25649;SDS011;13505;45.196;5.696;2023-02-05T17:44:28;7.30;;;3.28;;
25649;SDS011;13505;45.196;5.696;2023-02-05T17:49:20;5.35;;;3.47;;
25649;SDS011;13505;45.196;5.696;2023-02-05T17:54:11;9.35;;;3.15;;
25649;SDS011;13505;45.196;5.696;2023-02-05T17:59:04;5.80;;;2.85;;
25649;SDS011;13505;45.196;5.696;2023-02-05T18:03:55;7.05;;;3.38;;
25649;SDS011;13505;45.196;5.696;2023-02-05T18:08:45;6.57;;;2.72;;
25649;SDS011;13505;45.196;5.696;2023-02-05T18:13:35;6.25;;;3.20;;
25649;SDS011;13505;45.196;5.696;2023-02-05T18:18:26;4.97;;;3.03;;
25649;SDS011;13505;45.196;5.696;2023-02-05T18:23:17;6.88;;;3.15;;
25649;SDS011;13505;45.196;5.696;2023-02-05T18:28:07;7.70;;;3.33;;
25649;SDS011;13505;45.196;5.696;2023-02-05T18:32:58;6.20;;;3.65;;
25649;SDS011;13505;45.196;5.696;2023-02-05T18:37:48;6.05;;;3.30;;
25649;SDS011;13505;45.196;5.696;2023-02-05T18:42:38;7.22;;;3.70;;
25649;SDS011;13505;45.196;5.696;2023-02-05T18:47:30;6.97;;;3.38;;
25649;SDS011;13505;45.196;5.696;2023-02-05T18:52:20;4.35;;;3.03;;
25649;SDS011;13505;45.196;5.696;2023-02-05T18:57:15;8.80;;;3.20;;
25649;SDS011;13505;45.196;5.696;2023-02-05T19:02:06;6.60;;;3.05;;
25649;SDS011;13505;45.196;5.696;2023-02-05T19:06:58;7.07;;;3.20;;
25649;SDS011;13505;45.196;5.696;2023-02-05T19:11:49;6.35;;;3.20;;
25649;SDS011;13505;45.196;5.696;2023-02-05T19:16:40;4.85;;;3.20;;
25649;SDS011;13505;45.196;5.696;2023-02-05T19:21:31;5.60;;;3.30;;
25649;SDS011;13505;45.196;5.696;2023-02-05T19:26:23;6.10;;;3.50;;
25649;SDS011;13505;45.196;5.696;2023-02-05T19:31:17;7.47;;;3.80;;
25649;SDS011;13505;45.196;5.696;2023-02-05T19:36:08;7.82;;;3.65;;
25649;SDS011;13505;45.196;5.696;2023-02-05T19:41:16;7.38;;;3.60;;
25649;SDS011;13505;45.196;5.696;2023-02-05T19:46:08;7.68;;;3.63;;
25649;SDS011;13505;45.196;5.696;2023-02-05T19:51:02;7.70;;;3.55;;
25649;SDS011;13505;45.196;5.696;2023-02-05T19:55:53;10.40;;;3.47;;
25649;SDS011;13505;45.196;5.696;2023-02-05T20:00:44;4.50;;;2.97;;
25649;SDS011;13505;45.196;5.696;2023-02-05T20:05:35;6.25;;;2.67;;
25649;SDS011;13505;45.196;5.696;2023-02-05T20:10:25;4.75;;;2.90;;
25649;SDS011;13505;45.196;5.696;2023-02-05T20:15:16;3.95;;;2.65;;
25649;SDS011;13505;45.196;5.696;2023-02-05T20:20:06;5.60;;;2.80;;
25649;SDS011;13505;45.196;5.696;2023-02-05T20:24:57;6.25;;;3.10;;
25649;SDS011;13505;45.196;5.696;2023-02-05T20:29:48;5.43;;;3.25;;
25649;SDS011;13505;45.196;5.696;2023-02-05T20:34:56;5.13;;;2.83;;
25649;SDS011;13505;45.196;5.696;2023-02-05T20:39:47;4.53;;;2.75;;
25649;SDS011;13505;45.196;5.696;2023-02-05T20:44:37;5.32;;;2.85;;
25649;SDS011;13505;45.196;5.696;2023-02-05T20:49:28;6.30;;;3.10;;
25649;SDS011;13505;45.196;5.696;2023-02-05T20:54:18;5.93;;;2.67;;
25649;SDS011;13505;45.196;5.696;2023-02-05T20:59:10;3.58;;;2.60;;
25649;SDS011;13505;45.196;5.696;2023-02-05T21:04:02;4.15;;;2.50;;
25649;SDS011;13505;45.196;5.696;2023-02-05T21:08:54;3.13;;;2.50;;
25649;SDS011;13505;45.196;5.696;2023-02-05T21:13:45;3.45;;;2.05;;
25649;SDS011;13505;45.196;5.696;2023-02-05T21:18:36;4.20;;;2.50;;
25649;SDS011;13505;45.196;5.696;2023-02-05T21:23:27;3.55;;;2.08;;
25649;SDS011;13505;45.196;5.696;2023-02-05T21:28:18;3.38;;;2.33;;
25649;SDS011;13505;45.196;5.696;2023-02-05T21:33:08;2.33;;;1.73;;
25649;SDS011;13505;45.196;5.696;2023-02-05T21:37:58;2.13;;;1.52;;
25649;SDS011;13505;45.196;5.696;2023-02-05T21:42:49;2.55;;;1.80;;
25649;SDS011;13505;45.196;5.696;2023-02-05T21:47:39;3.03;;;2.03;;
25649;SDS011;13505;45.196;5.696;2023-02-05T21:52:30;2.65;;;2.00;;
25649;SDS011;13505;45.196;5.696;2023-02-05T21:57:20;3.75;;;1.60;;
25649;SDS011;13505;45.196;5.696;2023-02-05T22:02:11;6.13;;;2.00;;
25649;SDS011;13505;45.196;5.696;2023-02-05T22:07:01;2.50;;;1.85;;
25649;SDS011;13505;45.196;5.696;2023-02-05T22:11:52;2.72;;;1.90;;
25649;SDS011;13505;45.196;5.696;2023-02-05T22:16:43;2.03;;;1.70;;
25649;SDS011;13505;45.196;5.696;2023-02-05T22:21:34;3.00;;;2.00;;
25649;SDS011;13505;45.196;5.696;2023-02-05T22:26:32;2.55;;;1.67;;
25649;SDS011;13505;45.196;5.696;2023-02-05T22:31:25;2.72;;;1.73;;
25649;SDS011;13505;45.196;5.696;2023-02-05T22:36:18;6.68;;;1.52;;
25649;SDS011;13505;45.196;5.696;2023-02-05T22:41:15;2.70;;;1.90;;
25649;SDS011;13505;45.196;5.696;2023-02-05T22:46:08;2.80;;;1.50;;
25649;SDS011;13505;45.196;5.696;2023-02-05T22:51:02;2.05;;;1.50;;
25649;SDS011;13505;45.196;5.696;2023-02-05T22:55:53;2.45;;;1.65;;
